sensor_id;sensor_type;location;lat;lon;timestamp;temperature;humidity
7317;DHT22;3699;51.462;6.696;2023-11-18T00:01:23;5.60;99.90
7317;DHT22;3699;51.462;6.696;2023-11-18T00:03:50;5.50;99.90
7317;DHT22;3699;51.462;6.696;2023-11-18T00:06:17;5.30;99.90
7317;DHT22;3699;51.462;6.696;2023-11-18T00:08:45;6.00;99.90
7317;DHT22;3699;51.462;6.696;2023-11-18T00:13:39;5.50;99.90
7317;DHT22;3699;51.462;6.696;2023-11-18T00:16:08;5.60;99.90
7317;DHT22;3699;51.462;6.696;2023-11-18T00:21:05;5.50;99.90
7317;DHT22;3699;51.462;6.696;2023-11-18T00:23:32;5.40;99.90
7317;DHT22;3699;51.462;6.696;2023-11-18T00:26:01;5.40;99.90
7317;DHT22;3699;51.462;6.696;2023-11-18T00:28:28;5.60;99.90
7317;DHT22;3699;51.462;6.696;2023-11-18T00:33:22;5.30;99.90
7317;DHT22;3699;51.462;6.696;2023-11-18T00:35:49;5.40;99.90
7317;DHT22;3699;51.462;6.696;2023-11-18T00:38:15;5.30;99.90
7317;DHT22;3699;51.462;6.696;2023-11-18T00:40:43;5.40;99.90
7317;DHT22;3699;51.462;6.696;2023-11-18T00:43:11;5.50;99.90
7317;DHT22;3699;51.462;6.696;2023-11-18T00:45:38;5.00;99.90
7317;DHT22;3699;51.462;6.696;2023-11-18T00:48:05;5.40;99.90
7317;DHT22;3699;51.462;6.696;2023-11-18T00:50:31;5.50;99.90
7317;DHT22;3699;51.462;6.696;2023-11-18T00:52:59;5.60;99.90
7317;DHT22;3699;51.462;6.696;2023-11-18T00:55:26;5.30;99.90
7317;DHT22;3699;51.462;6.696;2023-11-18T00:57:52;5.50;99.90
7317;DHT22;3699;51.462;6.696;2023-11-18T01:00:21;5.60;99.90
7317;DHT22;3699;51.462;6.696;2023-11-18T01:02:48;5.20;99.90
7317;DHT22;3699;51.462;6.696;2023-11-18T01:05:15;5.70;99.90
7317;DHT22;3699;51.462;6.696;2023-11-18T01:07:42;5.60;99.90
7317;DHT22;3699;51.462;6.696;2023-11-18T01:10:10;5.80;99.90
7317;DHT22;3699;51.462;6.696;2023-11-18T01:12:37;5.80;99.90
7317;DHT22;3699;51.462;6.696;2023-11-18T01:15:05;5.60;99.90
7317;DHT22;3699;51.462;6.696;2023-11-18T01:17:33;5.50;99.90
7317;DHT22;3699;51.462;6.696;2023-11-18T01:20:00;5.80;99.90
7317;DHT22;3699;51.462;6.696;2023-11-18T01:22:34;5.60;99.90
7317;DHT22;3699;51.462;6.696;2023-11-18T01:27:28;5.80;99.90
7317;DHT22;3699;51.462;6.696;2023-11-18T01:29:55;5.80;99.90
7317;DHT22;3699;51.462;6.696;2023-11-18T01:32:21;5.80;99.90
7317;DHT22;3699;51.462;6.696;2023-11-18T01:34:50;5.80;99.90
7317;DHT22;3699;51.462;6.696;2023-11-18T01:37:19;5.90;99.90
7317;DHT22;3699;51.462;6.696;2023-11-18T01:39:47;5.90;99.90
7317;DHT22;3699;51.462;6.696;2023-11-18T01:42:14;5.70;99.90
7317;DHT22;3699;51.462;6.696;2023-11-18T01:44:40;5.60;99.90
7317;DHT22;3699;51.462;6.696;2023-11-18T01:47:08;5.00;99.90
7317;DHT22;3699;51.462;6.696;2023-11-18T01:49:38;5.80;99.90
7317;DHT22;3699;51.462;6.696;2023-11-18T01:52:07;5.60;99.90
7317;DHT22;3699;51.462;6.696;2023-11-18T01:54:36;5.70;99.90
7317;DHT22;3699;51.462;6.696;2023-11-18T01:57:05;5.60;99.90
7317;DHT22;3699;51.462;6.696;2023-11-18T01:59:32;5.70;99.90
7317;DHT22;3699;51.462;6.696;2023-11-18T02:02:00;5.80;99.90
7317;DHT22;3699;51.462;6.696;2023-11-18T02:04:27;5.90;99.90
7317;DHT22;3699;51.462;6.696;2023-11-18T02:06:55;5.60;99.90
7317;DHT22;3699;51.462;6.696;2023-11-18T02:09:24;5.70;99.90
7317;DHT22;3699;51.462;6.696;2023-11-18T02:11:58;5.90;99.90
7317;DHT22;3699;51.462;6.696;2023-11-18T02:14:27;5.60;99.90
7317;DHT22;3699;51.462;6.696;2023-11-18T02:16:59;5.70;99.90
7317;DHT22;3699;51.462;6.696;2023-11-18T02:19:26;5.80;99.90
7317;DHT22;3699;51.462;6.696;2023-11-18T02:21:55;5.80;99.90
7317;DHT22;3699;51.462;6.696;2023-11-18T02:24:29;5.90;99.90
7317;DHT22;3699;51.462;6.696;2023-11-18T02:27:00;5.90;99.90
7317;DHT22;3699;51.462;6.696;2023-11-18T02:29:29;6.00;99.90
7317;DHT22;3699;51.462;6.696;2023-11-18T02:32:05;5.90;99.90
7317;DHT22;3699;51.462;6.696;2023-11-18T02:34:38;5.80;99.90
7317;DHT22;3699;51.462;6.696;2023-11-18T02:37:09;6.10;99.90
7317;DHT22;3699;51.462;6.696;2023-11-18T02:39:40;5.60;99.90
7317;DHT22;3699;51.462;6.696;2023-11-18T02:42:11;5.80;99.90
7317;DHT22;3699;51.462;6.696;2023-11-18T02:44:39;5.70;99.90
7317;DHT22;3699;51.462;6.696;2023-11-18T02:47:07;6.00;99.90
7317;DHT22;3699;51.462;6.696;2023-11-18T02:49:34;6.10;99.90
7317;DHT22;3699;51.462;6.696;2023-11-18T02:52:02;5.90;99.90
7317;DHT22;3699;51.462;6.696;2023-11-18T02:54:29;5.80;99.90
7317;DHT22;3699;51.462;6.696;2023-11-18T02:56:55;6.10;99.90
7317;DHT22;3699;51.462;6.696;2023-11-18T02:59:23;5.90;99.90
7317;DHT22;3699;51.462;6.696;2023-11-18T03:01:53;5.80;99.90
7317;DHT22;3699;51.462;6.696;2023-11-18T03:04:20;5.80;99.90
7317;DHT22;3699;51.462;6.696;2023-11-18T03:06:49;5.90;99.90
7317;DHT22;3699;51.462;6.696;2023-11-18T03:11:44;5.80;99.90
7317;DHT22;3699;51.462;6.696;2023-11-18T03:16:39;5.80;99.90
7317;DHT22;3699;51.462;6.696;2023-11-18T03:19:06;6.10;99.90
7317;DHT22;3699;51.462;6.696;2023-11-18T03:24:02;5.50;99.90
7317;DHT22;3699;51.462;6.696;2023-11-18T03:26:28;5.90;99.90
7317;DHT22;3699;51.462;6.696;2023-11-18T03:28:57;5.80;99.90
7317;DHT22;3699;51.462;6.696;2023-11-18T03:31:24;5.90;99.90
7317;DHT22;3699;51.462;6.696;2023-11-18T03:33:52;5.80;99.90
7317;DHT22;3699;51.462;6.696;2023-11-18T03:36:19;5.80;99.90
7317;DHT22;3699;51.462;6.696;2023-11-18T03:38:46;6.00;99.90
7317;DHT22;3699;51.462;6.696;2023-11-18T03:41:13;6.20;99.90
7317;DHT22;3699;51.462;6.696;2023-11-18T03:43:40;5.80;99.90
7317;DHT22;3699;51.462;6.696;2023-11-18T03:46:07;5.90;99.90
7317;DHT22;3699;51.462;6.696;2023-11-18T03:48:33;6.10;99.90
7317;DHT22;3699;51.462;6.696;2023-11-18T03:51:03;5.90;99.90
7317;DHT22;3699;51.462;6.696;2023-11-18T03:53:29;5.90;99.90
7317;DHT22;3699;51.462;6.696;2023-11-18T03:55:59;6.00;99.90
7317;DHT22;3699;51.462;6.696;2023-11-18T03:58:26;5.80;99.90
7317;DHT22;3699;51.462;6.696;2023-11-18T04:00:52;6.10;99.90
7317;DHT22;3699;51.462;6.696;2023-11-18T04:03:19;6.00;99.90
7317;DHT22;3699;51.462;6.696;2023-11-18T04:05:46;5.80;99.90
7317;DHT22;3699;51.462;6.696;2023-11-18T04:08:14;5.90;99.90
7317;DHT22;3699;51.462;6.696;2023-11-18T04:13:08;6.10;99.90
7317;DHT22;3699;51.462;6.696;2023-11-18T04:15:35;5.90;99.90
7317;DHT22;3699;51.462;6.696;2023-11-18T04:18:02;5.90;99.90
7317;DHT22;3699;51.462;6.696;2023-11-18T04:22:56;5.40;99.90
7317;DHT22;3699;51.462;6.696;2023-11-18T04:25:24;5.90;99.90
7317;DHT22;3699;51.462;6.696;2023-11-18T04:27:51;6.00;99.90
7317;DHT22;3699;51.462;6.696;2023-11-18T04:30:17;5.60;99.90
7317;DHT22;3699;51.462;6.696;2023-11-18T04:35:11;6.00;99.90
7317;DHT22;3699;51.462;6.696;2023-11-18T04:37:38;5.70;99.90
7317;DHT22;3699;51.462;6.696;2023-11-18T04:40:08;5.80;99.90
7317;DHT22;3699;51.462;6.696;2023-11-18T04:42:38;5.80;99.90
7317;DHT22;3699;51.462;6.696;2023-11-18T04:45:05;5.80;99.90
7317;DHT22;3699;51.462;6.696;2023-11-18T04:47:32;5.70;99.90
7317;DHT22;3699;51.462;6.696;2023-11-18T04:52:26;5.70;99.90
7317;DHT22;3699;51.462;6.696;2023-11-18T04:54:53;5.60;99.90
7317;DHT22;3699;51.462;6.696;2023-11-18T04:57:21;5.60;99.90
7317;DHT22;3699;51.462;6.696;2023-11-18T04:59:48;5.70;99.90
7317;DHT22;3699;51.462;6.696;2023-11-18T05:04:42;5.70;99.90
7317;DHT22;3699;51.462;6.696;2023-11-18T05:07:09;5.80;99.90
7317;DHT22;3699;51.462;6.696;2023-11-18T05:09:35;5.90;99.90
7317;DHT22;3699;51.462;6.696;2023-11-18T05:12:03;5.60;99.90
7317;DHT22;3699;51.462;6.696;2023-11-18T05:14:30;5.70;99.90
7317;DHT22;3699;51.462;6.696;2023-11-18T05:16:59;5.90;99.90
7317;DHT22;3699;51.462;6.696;2023-11-18T05:21:55;5.70;99.90
7317;DHT22;3699;51.462;6.696;2023-11-18T05:24:22;5.80;99.90
7317;DHT22;3699;51.462;6.696;2023-11-18T05:26:48;5.70;99.90
7317;DHT22;3699;51.462;6.696;2023-11-18T05:31:42;5.70;99.90
7317;DHT22;3699;51.462;6.696;2023-11-18T05:34:12;6.20;99.90
7317;DHT22;3699;51.462;6.696;2023-11-18T05:36:39;5.80;99.90
7317;DHT22;3699;51.462;6.696;2023-11-18T05:39:05;5.90;99.90
7317;DHT22;3699;51.462;6.696;2023-11-18T05:41:34;5.70;99.90
7317;DHT22;3699;51.462;6.696;2023-11-18T05:44:05;5.70;99.90
7317;DHT22;3699;51.462;6.696;2023-11-18T05:46:34;5.90;99.90
7317;DHT22;3699;51.462;6.696;2023-11-18T05:49:02;5.80;99.90
7317;DHT22;3699;51.462;6.696;2023-11-18T05:51:34;5.80;99.90
7317;DHT22;3699;51.462;6.696;2023-11-18T05:54:00;5.70;99.90
7317;DHT22;3699;51.462;6.696;2023-11-18T05:58:54;6.10;99.90
7317;DHT22;3699;51.462;6.696;2023-11-18T06:01:22;6.10;99.90
7317;DHT22;3699;51.462;6.696;2023-11-18T06:03:49;5.90;99.90
7317;DHT22;3699;51.462;6.696;2023-11-18T06:06:16;5.90;99.90
7317;DHT22;3699;51.462;6.696;2023-11-18T06:08:44;5.90;99.90
7317;DHT22;3699;51.462;6.696;2023-11-18T06:11:13;5.90;99.90
7317;DHT22;3699;51.462;6.696;2023-11-18T06:13:41;6.00;99.90
7317;DHT22;3699;51.462;6.696;2023-11-18T06:16:10;6.00;99.90
7317;DHT22;3699;51.462;6.696;2023-11-18T06:18:40;6.00;99.90
7317;DHT22;3699;51.462;6.696;2023-11-18T06:21:06;6.20;99.90
7317;DHT22;3699;51.462;6.696;2023-11-18T06:23:34;6.10;99.90
7317;DHT22;3699;51.462;6.696;2023-11-18T06:26:02;6.00;99.90
7317;DHT22;3699;51.462;6.696;2023-11-18T06:28:30;6.10;99.90
7317;DHT22;3699;51.462;6.696;2023-11-18T06:30:56;6.10;99.90
7317;DHT22;3699;51.462;6.696;2023-11-18T06:33:22;5.90;99.90
7317;DHT22;3699;51.462;6.696;2023-11-18T06:35:52;6.10;99.90
7317;DHT22;3699;51.462;6.696;2023-11-18T06:38:20;6.10;99.90
7317;DHT22;3699;51.462;6.696;2023-11-18T06:40:46;6.10;99.90
7317;DHT22;3699;51.462;6.696;2023-11-18T06:43:19;6.10;99.90
7317;DHT22;3699;51.462;6.696;2023-11-18T06:48:14;6.20;99.90
7317;DHT22;3699;51.462;6.696;2023-11-18T06:53:12;6.40;99.90
7317;DHT22;3699;51.462;6.696;2023-11-18T06:55:41;6.30;99.90
7317;DHT22;3699;51.462;6.696;2023-11-18T06:58:07;6.10;99.90
7317;DHT22;3699;51.462;6.696;2023-11-18T07:00:36;6.30;99.90
7317;DHT22;3699;51.462;6.696;2023-11-18T07:03:04;6.50;99.90
7317;DHT22;3699;51.462;6.696;2023-11-18T07:05:31;6.30;99.90
7317;DHT22;3699;51.462;6.696;2023-11-18T07:07:57;6.40;99.90
7317;DHT22;3699;51.462;6.696;2023-11-18T07:15:20;6.60;99.90
7317;DHT22;3699;51.462;6.696;2023-11-18T07:17:49;6.20;99.90
7317;DHT22;3699;51.462;6.696;2023-11-18T07:20:17;6.20;99.90
7317;DHT22;3699;51.462;6.696;2023-11-18T07:22:43;6.50;99.90
7317;DHT22;3699;51.462;6.696;2023-11-18T07:25:10;6.10;99.90
7317;DHT22;3699;51.462;6.696;2023-11-18T07:27:38;6.80;99.90
7317;DHT22;3699;51.462;6.696;2023-11-18T07:30:06;6.60;99.90
7317;DHT22;3699;51.462;6.696;2023-11-18T07:32:36;6.50;99.90
7317;DHT22;3699;51.462;6.696;2023-11-18T07:35:04;6.50;99.90
7317;DHT22;3699;51.462;6.696;2023-11-18T07:37:34;6.50;99.90
7317;DHT22;3699;51.462;6.696;2023-11-18T07:40:03;6.60;99.90
7317;DHT22;3699;51.462;6.696;2023-11-18T07:42:31;6.70;99.90
7317;DHT22;3699;51.462;6.696;2023-11-18T07:44:59;6.70;99.90
7317;DHT22;3699;51.462;6.696;2023-11-18T07:47:29;6.60;99.90
7317;DHT22;3699;51.462;6.696;2023-11-18T07:49:57;6.70;99.90
7317;DHT22;3699;51.462;6.696;2023-11-18T07:52:26;6.70;99.90
7317;DHT22;3699;51.462;6.696;2023-11-18T07:54:54;6.70;99.90
7317;DHT22;3699;51.462;6.696;2023-11-18T07:57:22;6.80;99.90
7317;DHT22;3699;51.462;6.696;2023-11-18T07:59:50;6.80;99.90
7317;DHT22;3699;51.462;6.696;2023-11-18T08:02:19;6.90;99.90
7317;DHT22;3699;51.462;6.696;2023-11-18T08:04:46;6.80;99.90
7317;DHT22;3699;51.462;6.696;2023-11-18T08:07:12;6.40;99.90
7317;DHT22;3699;51.462;6.696;2023-11-18T08:09:40;6.80;99.90
7317;DHT22;3699;51.462;6.696;2023-11-18T08:12:08;7.10;99.90
7317;DHT22;3699;51.462;6.696;2023-11-18T08:14:35;6.90;99.90
7317;DHT22;3699;51.462;6.696;2023-11-18T08:17:02;7.20;99.90
7317;DHT22;3699;51.462;6.696;2023-11-18T08:19:30;7.20;99.90
7317;DHT22;3699;51.462;6.696;2023-11-18T08:21:58;6.90;99.90
7317;DHT22;3699;51.462;6.696;2023-11-18T08:24:25;6.60;99.90
7317;DHT22;3699;51.462;6.696;2023-11-18T08:26:53;7.10;99.90
7317;DHT22;3699;51.462;6.696;2023-11-18T08:29:20;7.20;99.90
7317;DHT22;3699;51.462;6.696;2023-11-18T08:31:47;7.20;99.90
7317;DHT22;3699;51.462;6.696;2023-11-18T08:34:14;7.60;99.90
7317;DHT22;3699;51.462;6.696;2023-11-18T08:36:43;7.20;99.90
7317;DHT22;3699;51.462;6.696;2023-11-18T08:39:10;7.40;99.90
7317;DHT22;3699;51.462;6.696;2023-11-18T08:44:08;7.10;99.90
7317;DHT22;3699;51.462;6.696;2023-11-18T08:46:40;7.40;99.90
7317;DHT22;3699;51.462;6.696;2023-11-18T08:49:08;7.80;99.90
7317;DHT22;3699;51.462;6.696;2023-11-18T08:51:36;7.30;99.90
7317;DHT22;3699;51.462;6.696;2023-11-18T08:54:04;7.40;99.90
7317;DHT22;3699;51.462;6.696;2023-11-18T08:59:18;7.50;99.90
7317;DHT22;3699;51.462;6.696;2023-11-18T09:01:50;7.60;99.90
7317;DHT22;3699;51.462;6.696;2023-11-18T09:04:22;7.10;99.90
7317;DHT22;3699;51.462;6.696;2023-11-18T09:06:49;7.50;99.90
7317;DHT22;3699;51.462;6.696;2023-11-18T09:09:17;7.50;99.90
7317;DHT22;3699;51.462;6.696;2023-11-18T09:11:53;7.30;99.90
7317;DHT22;3699;51.462;6.696;2023-11-18T09:14:23;7.70;99.90
7317;DHT22;3699;51.462;6.696;2023-11-18T09:16:51;7.50;99.90
7317;DHT22;3699;51.462;6.696;2023-11-18T09:19:20;7.50;99.90
7317;DHT22;3699;51.462;6.696;2023-11-18T09:21:47;7.50;99.90
7317;DHT22;3699;51.462;6.696;2023-11-18T09:24:14;7.70;99.90
7317;DHT22;3699;51.462;6.696;2023-11-18T09:26:45;7.80;99.90
7317;DHT22;3699;51.462;6.696;2023-11-18T09:29:15;7.60;99.90
7317;DHT22;3699;51.462;6.696;2023-11-18T09:31:46;7.80;99.90
7317;DHT22;3699;51.462;6.696;2023-11-18T09:34:14;7.70;99.90
7317;DHT22;3699;51.462;6.696;2023-11-18T09:36:42;7.90;99.90
7317;DHT22;3699;51.462;6.696;2023-11-18T09:39:09;7.90;99.90
7317;DHT22;3699;51.462;6.696;2023-11-18T09:41:41;7.80;99.90
7317;DHT22;3699;51.462;6.696;2023-11-18T09:44:09;8.00;99.90
7317;DHT22;3699;51.462;6.696;2023-11-18T09:46:41;8.10;99.90
7317;DHT22;3699;51.462;6.696;2023-11-18T09:49:25;7.90;99.90
7317;DHT22;3699;51.462;6.696;2023-11-18T09:51:59;8.00;99.90
7317;DHT22;3699;51.462;6.696;2023-11-18T09:54:36;7.80;99.90
7317;DHT22;3699;51.462;6.696;2023-11-18T09:57:09;8.00;99.90
7317;DHT22;3699;51.462;6.696;2023-11-18T09:59:44;8.00;99.90
7317;DHT22;3699;51.462;6.696;2023-11-18T10:02:12;8.00;99.90
7317;DHT22;3699;51.462;6.696;2023-11-18T10:04:41;8.10;99.90
7317;DHT22;3699;51.462;6.696;2023-11-18T10:07:12;8.60;99.90
7317;DHT22;3699;51.462;6.696;2023-11-18T10:09:42;8.10;99.90
7317;DHT22;3699;51.462;6.696;2023-11-18T10:12:09;8.20;99.90
7317;DHT22;3699;51.462;6.696;2023-11-18T10:14:42;8.50;99.90
7317;DHT22;3699;51.462;6.696;2023-11-18T10:17:10;8.30;99.90
7317;DHT22;3699;51.462;6.696;2023-11-18T10:19:54;8.40;99.90
7317;DHT22;3699;51.462;6.696;2023-11-18T10:22:26;8.40;99.90
7317;DHT22;3699;51.462;6.696;2023-11-18T10:24:54;8.40;99.90
7317;DHT22;3699;51.462;6.696;2023-11-18T10:27:23;8.50;99.90
7317;DHT22;3699;51.462;6.696;2023-11-18T10:29:55;8.70;99.90
7317;DHT22;3699;51.462;6.696;2023-11-18T10:32:22;8.60;99.90
7317;DHT22;3699;51.462;6.696;2023-11-18T10:34:55;8.60;99.90
7317;DHT22;3699;51.462;6.696;2023-11-18T10:37:23;8.50;99.90
7317;DHT22;3699;51.462;6.696;2023-11-18T10:39:49;8.60;99.90
7317;DHT22;3699;51.462;6.696;2023-11-18T10:42:17;8.90;99.90
7317;DHT22;3699;51.462;6.696;2023-11-18T10:44:54;8.80;99.90
7317;DHT22;3699;51.462;6.696;2023-11-18T10:47:23;8.70;99.90
7317;DHT22;3699;51.462;6.696;2023-11-18T10:49:51;8.70;99.90
7317;DHT22;3699;51.462;6.696;2023-11-18T10:52:20;8.70;99.90
7317;DHT22;3699;51.462;6.696;2023-11-18T10:54:53;8.70;99.90
7317;DHT22;3699;51.462;6.696;2023-11-18T10:57:20;8.70;99.90
7317;DHT22;3699;51.462;6.696;2023-11-18T10:59:59;8.60;99.90
7317;DHT22;3699;51.462;6.696;2023-11-18T11:02:30;8.60;99.90
7317;DHT22;3699;51.462;6.696;2023-11-18T11:05:00;8.60;99.90
7317;DHT22;3699;51.462;6.696;2023-11-18T11:07:29;8.70;99.90
7317;DHT22;3699;51.462;6.696;2023-11-18T11:09:59;8.60;99.90
7317;DHT22;3699;51.462;6.696;2023-11-18T11:12:32;8.60;99.90
7317;DHT22;3699;51.462;6.696;2023-11-18T11:15:04;8.70;99.90
7317;DHT22;3699;51.462;6.696;2023-11-18T11:17:40;8.70;99.90
7317;DHT22;3699;51.462;6.696;2023-11-18T11:20:14;7.50;99.90
7317;DHT22;3699;51.462;6.696;2023-11-18T11:23:00;8.60;99.90
7317;DHT22;3699;51.462;6.696;2023-11-18T11:25:36;8.70;99.90
7317;DHT22;3699;51.462;6.696;2023-11-18T11:28:10;8.70;99.90
7317;DHT22;3699;51.462;6.696;2023-11-18T11:30:44;8.80;99.90
7317;DHT22;3699;51.462;6.696;2023-11-18T11:33:16;8.70;99.90
7317;DHT22;3699;51.462;6.696;2023-11-18T11:35:53;8.80;99.90
7317;DHT22;3699;51.462;6.696;2023-11-18T11:38:24;8.80;99.90
7317;DHT22;3699;51.462;6.696;2023-11-18T11:40:52;8.90;99.90
7317;DHT22;3699;51.462;6.696;2023-11-18T11:43:21;8.90;99.90
7317;DHT22;3699;51.462;6.696;2023-11-18T11:45:49;8.90;99.90
7317;DHT22;3699;51.462;6.696;2023-11-18T11:48:18;8.90;99.90
7317;DHT22;3699;51.462;6.696;2023-11-18T11:51:00;9.00;99.90
7317;DHT22;3699;51.462;6.696;2023-11-18T11:53:34;9.00;99.90
7317;DHT22;3699;51.462;6.696;2023-11-18T11:56:05;9.00;99.90
7317;DHT22;3699;51.462;6.696;2023-11-18T11:58:34;9.10;99.90
7317;DHT22;3699;51.462;6.696;2023-11-18T12:01:16;9.20;99.90
7317;DHT22;3699;51.462;6.696;2023-11-18T12:03:46;9.30;99.90
7317;DHT22;3699;51.462;6.696;2023-11-18T12:06:18;9.20;99.90
7317;DHT22;3699;51.462;6.696;2023-11-18T12:08:51;9.20;99.90
7317;DHT22;3699;51.462;6.696;2023-11-18T12:11:19;9.20;99.90
7317;DHT22;3699;51.462;6.696;2023-11-18T12:14:03;9.00;99.90
7317;DHT22;3699;51.462;6.696;2023-11-18T12:16:57;9.10;99.90
7317;DHT22;3699;51.462;6.696;2023-11-18T12:19:29;9.00;99.90
7317;DHT22;3699;51.462;6.696;2023-11-18T12:21:56;9.10;99.90
7317;DHT22;3699;51.462;6.696;2023-11-18T12:24:28;9.00;99.90
7317;DHT22;3699;51.462;6.696;2023-11-18T12:26:59;9.00;99.90
7317;DHT22;3699;51.462;6.696;2023-11-18T12:29:32;8.90;99.90
7317;DHT22;3699;51.462;6.696;2023-11-18T12:31:59;8.90;99.90
7317;DHT22;3699;51.462;6.696;2023-11-18T12:34:51;8.90;99.90
7317;DHT22;3699;51.462;6.696;2023-11-18T12:37:47;8.90;99.90
7317;DHT22;3699;51.462;6.696;2023-11-18T12:40:51;8.90;99.90
7317;DHT22;3699;51.462;6.696;2023-11-18T12:43:33;8.90;99.90
7317;DHT22;3699;51.462;6.696;2023-11-18T12:46:32;8.90;99.90
7317;DHT22;3699;51.462;6.696;2023-11-18T12:49:05;9.00;99.90
7317;DHT22;3699;51.462;6.696;2023-11-18T12:51:32;9.00;99.90
7317;DHT22;3699;51.462;6.696;2023-11-18T12:54:02;8.90;99.90
7317;DHT22;3699;51.462;6.696;2023-11-18T12:56:34;8.90;99.90
7317;DHT22;3699;51.462;6.696;2023-11-18T12:59:01;9.00;99.90
7317;DHT22;3699;51.462;6.696;2023-11-18T13:01:32;8.90;99.90
7317;DHT22;3699;51.462;6.696;2023-11-18T13:04:01;8.90;99.90
7317;DHT22;3699;51.462;6.696;2023-11-18T13:06:28;9.10;99.90
7317;DHT22;3699;51.462;6.696;2023-11-18T13:08:55;9.00;99.90
7317;DHT22;3699;51.462;6.696;2023-11-18T13:11:23;9.20;99.90
7317;DHT22;3699;51.462;6.696;2023-11-18T13:13:52;9.10;99.90
7317;DHT22;3699;51.462;6.696;2023-11-18T13:16:19;9.00;99.90
7317;DHT22;3699;51.462;6.696;2023-11-18T13:18:48;9.00;99.90
7317;DHT22;3699;51.462;6.696;2023-11-18T13:21:15;9.00;99.90
7317;DHT22;3699;51.462;6.696;2023-11-18T13:23:45;9.00;99.90
7317;DHT22;3699;51.462;6.696;2023-11-18T13:26:13;9.00;99.90
7317;DHT22;3699;51.462;6.696;2023-11-18T13:28:41;9.20;99.90
7317;DHT22;3699;51.462;6.696;2023-11-18T13:31:10;9.00;99.90
7317;DHT22;3699;51.462;6.696;2023-11-18T13:33:41;9.00;99.90
7317;DHT22;3699;51.462;6.696;2023-11-18T13:36:09;9.00;99.90
7317;DHT22;3699;51.462;6.696;2023-11-18T13:38:36;9.00;99.90
7317;DHT22;3699;51.462;6.696;2023-11-18T13:41:04;9.00;99.90
7317;DHT22;3699;51.462;6.696;2023-11-18T13:43:43;9.50;99.90
7317;DHT22;3699;51.462;6.696;2023-11-18T13:46:12;9.00;99.90
7317;DHT22;3699;51.462;6.696;2023-11-18T13:48:39;8.90;99.90
7317;DHT22;3699;51.462;6.696;2023-11-18T13:51:08;8.90;99.90
7317;DHT22;3699;51.462;6.696;2023-11-18T13:53:38;9.00;99.90
7317;DHT22;3699;51.462;6.696;2023-11-18T13:56:06;8.80;99.90
7317;DHT22;3699;51.462;6.696;2023-11-18T13:58:34;8.90;99.90
7317;DHT22;3699;51.462;6.696;2023-11-18T14:01:05;8.90;99.90
7317;DHT22;3699;51.462;6.696;2023-11-18T14:03:34;9.30;99.90
7317;DHT22;3699;51.462;6.696;2023-11-18T14:06:02;9.00;99.90
7317;DHT22;3699;51.462;6.696;2023-11-18T14:08:30;8.60;99.90
7317;DHT22;3699;51.462;6.696;2023-11-18T14:10:57;8.90;99.90
7317;DHT22;3699;51.462;6.696;2023-11-18T14:13:23;8.90;99.90
7317;DHT22;3699;51.462;6.696;2023-11-18T14:18:23;8.90;99.90
7317;DHT22;3699;51.462;6.696;2023-11-18T14:20:51;8.90;99.90
7317;DHT22;3699;51.462;6.696;2023-11-18T14:23:17;8.90;99.90
7317;DHT22;3699;51.462;6.696;2023-11-18T14:25:45;8.90;99.90
7317;DHT22;3699;51.462;6.696;2023-11-18T14:28:11;9.10;99.90
7317;DHT22;3699;51.462;6.696;2023-11-18T14:30:38;8.60;99.90
7317;DHT22;3699;51.462;6.696;2023-11-18T14:33:05;8.40;99.90
7317;DHT22;3699;51.462;6.696;2023-11-18T14:35:33;8.90;99.90
7317;DHT22;3699;51.462;6.696;2023-11-18T14:38:02;8.80;99.90
7317;DHT22;3699;51.462;6.696;2023-11-18T14:40:29;8.80;99.90
7317;DHT22;3699;51.462;6.696;2023-11-18T14:42:55;8.90;99.90
7317;DHT22;3699;51.462;6.696;2023-11-18T14:45:22;8.90;99.90
7317;DHT22;3699;51.462;6.696;2023-11-18T14:47:49;8.90;99.90
7317;DHT22;3699;51.462;6.696;2023-11-18T14:50:19;8.90;99.90
7317;DHT22;3699;51.462;6.696;2023-11-18T14:52:47;8.80;99.90
7317;DHT22;3699;51.462;6.696;2023-11-18T14:55:15;8.70;99.90
7317;DHT22;3699;51.462;6.696;2023-11-18T14:57:43;9.00;99.90
7317;DHT22;3699;51.462;6.696;2023-11-18T15:00:11;8.80;99.90
7317;DHT22;3699;51.462;6.696;2023-11-18T15:02:45;8.70;99.90
7317;DHT22;3699;51.462;6.696;2023-11-18T15:05:13;8.80;99.90
7317;DHT22;3699;51.462;6.696;2023-11-18T15:07:44;8.60;99.90
7317;DHT22;3699;51.462;6.696;2023-11-18T15:10:11;8.70;99.90
7317;DHT22;3699;51.462;6.696;2023-11-18T15:12:41;8.70;99.90
7317;DHT22;3699;51.462;6.696;2023-11-18T15:15:08;8.80;99.90
7317;DHT22;3699;51.462;6.696;2023-11-18T15:17:43;8.80;99.90
7317;DHT22;3699;51.462;6.696;2023-11-18T15:20:11;8.80;99.90
7317;DHT22;3699;51.462;6.696;2023-11-18T15:22:40;8.80;99.90
7317;DHT22;3699;51.462;6.696;2023-11-18T15:25:10;8.70;99.90
7317;DHT22;3699;51.462;6.696;2023-11-18T15:27:41;8.50;99.90
7317;DHT22;3699;51.462;6.696;2023-11-18T15:30:09;8.60;99.90
7317;DHT22;3699;51.462;6.696;2023-11-18T15:32:39;8.70;99.90
7317;DHT22;3699;51.462;6.696;2023-11-18T15:35:07;8.80;99.90
7317;DHT22;3699;51.462;6.696;2023-11-18T15:37:36;8.80;99.90
7317;DHT22;3699;51.462;6.696;2023-11-18T15:40:05;8.60;99.90
7317;DHT22;3699;51.462;6.696;2023-11-18T15:42:47;8.80;99.90
7317;DHT22;3699;51.462;6.696;2023-11-18T15:45:17;8.50;99.90
7317;DHT22;3699;51.462;6.696;2023-11-18T15:47:44;8.10;99.90
7317;DHT22;3699;51.462;6.696;2023-11-18T15:50:13;8.80;99.90
7317;DHT22;3699;51.462;6.696;2023-11-18T15:52:41;8.60;99.90
7317;DHT22;3699;51.462;6.696;2023-11-18T15:55:09;8.60;99.90
7317;DHT22;3699;51.462;6.696;2023-11-18T15:57:39;8.60;99.90
7317;DHT22;3699;51.462;6.696;2023-11-18T16:00:08;8.60;99.90
7317;DHT22;3699;51.462;6.696;2023-11-18T16:02:40;8.60;99.90
7317;DHT22;3699;51.462;6.696;2023-11-18T16:05:07;8.70;99.90
7317;DHT22;3699;51.462;6.696;2023-11-18T16:07:34;8.60;99.90
7317;DHT22;3699;51.462;6.696;2023-11-18T16:10:03;8.70;99.90
7317;DHT22;3699;51.462;6.696;2023-11-18T16:12:30;8.60;99.90
7317;DHT22;3699;51.462;6.696;2023-11-18T16:14:57;8.60;99.90
7317;DHT22;3699;51.462;6.696;2023-11-18T16:17:25;8.60;99.90
7317;DHT22;3699;51.462;6.696;2023-11-18T16:19:52;8.60;99.90
7317;DHT22;3699;51.462;6.696;2023-11-18T16:22:20;8.70;99.90
7317;DHT22;3699;51.462;6.696;2023-11-18T16:24:47;8.70;99.90
7317;DHT22;3699;51.462;6.696;2023-11-18T16:27:14;8.60;99.90
7317;DHT22;3699;51.462;6.696;2023-11-18T16:29:41;8.60;99.90
7317;DHT22;3699;51.462;6.696;2023-11-18T16:32:08;8.70;99.90
7317;DHT22;3699;51.462;6.696;2023-11-18T16:34:36;8.60;99.90
7317;DHT22;3699;51.462;6.696;2023-11-18T16:37:04;8.50;99.90
7317;DHT22;3699;51.462;6.696;2023-11-18T16:39:31;8.80;99.90
7317;DHT22;3699;51.462;6.696;2023-11-18T16:41:58;8.90;99.90
7317;DHT22;3699;51.462;6.696;2023-11-18T16:44:25;8.80;99.90
7317;DHT22;3699;51.462;6.696;2023-11-18T16:46:51;8.80;99.90
7317;DHT22;3699;51.462;6.696;2023-11-18T16:49:18;8.80;99.90
7317;DHT22;3699;51.462;6.696;2023-11-18T16:51:48;8.30;99.90
7317;DHT22;3699;51.462;6.696;2023-11-18T16:54:15;8.80;99.90
7317;DHT22;3699;51.462;6.696;2023-11-18T16:56:44;8.80;99.90
7317;DHT22;3699;51.462;6.696;2023-11-18T16:59:11;8.80;99.90
7317;DHT22;3699;51.462;6.696;2023-11-18T17:01:40;8.80;99.90
7317;DHT22;3699;51.462;6.696;2023-11-18T17:04:06;9.90;99.90
7317;DHT22;3699;51.462;6.696;2023-11-18T17:06:33;8.80;99.90
7317;DHT22;3699;51.462;6.696;2023-11-18T17:09:01;8.80;99.90
7317;DHT22;3699;51.462;6.696;2023-11-18T17:11:28;8.80;99.90
7317;DHT22;3699;51.462;6.696;2023-11-18T17:13:56;8.80;99.90
7317;DHT22;3699;51.462;6.696;2023-11-18T17:16:24;8.70;99.90
7317;DHT22;3699;51.462;6.696;2023-11-18T17:18:52;8.80;99.90
7317;DHT22;3699;51.462;6.696;2023-11-18T17:21:19;8.80;99.90
7317;DHT22;3699;51.462;6.696;2023-11-18T17:23:46;8.80;99.90